sensor_id;sensor_type;location;lat;lon;timestamp;pressure;altitude;pressure_sealevel;temperature;humidity
73594;BME280;64760;53.404;23.498;2022-11-15T00:01:43;100056.03;;;4.24;96.77
73594;BME280;64760;53.404;23.498;2022-11-15T00:04:29;100058.91;;;4.31;96.60
73594;BME280;64760;53.404;23.498;2022-11-15T00:07:13;100039.59;;;4.20;96.51
73594;BME280;64760;53.404;23.498;2022-11-15T00:09:59;100043.59;;;4.24;96.91
73594;BME280;64760;53.404;23.498;2022-11-15T00:12:43;100055.28;;;4.32;97.03
73594;BME280;64760;53.404;23.498;2022-11-15T00:15:29;100051.66;;;4.33;97.03
73594;BME280;64760;53.404;23.498;2022-11-15T00:18:16;100052.34;;;4.35;97.08
73594;BME280;64760;53.404;23.498;2022-11-15T00:21:07;100019.72;;;4.24;96.92
73594;BME280;64760;53.404;23.498;2022-11-15T00:23:52;100023.91;;;4.27;97.07
73594;BME280;64760;53.404;23.498;2022-11-15T00:26:37;100030.00;;;4.37;96.68
73594;BME280;64760;53.404;23.498;2022-11-15T00:29:22;100027.16;;;4.39;96.56
73594;BME280;64760;53.404;23.498;2022-11-15T00:32:07;100024.50;;;4.39;96.81
73594;BME280;64760;53.404;23.498;2022-11-15T00:34:52;100010.88;;;4.34;96.91
73594;BME280;64760;53.404;23.498;2022-11-15T00:37:37;100019.22;;;4.39;96.82
73594;BME280;64760;53.404;23.498;2022-11-15T00:40:21;100013.91;;;4.39;96.78
73594;BME280;64760;53.404;23.498;2022-11-15T00:43:07;100012.47;;;4.44;96.92
73594;BME280;64760;53.404;23.498;2022-11-15T00:45:52;99989.78;;;4.32;96.62
73594;BME280;64760;53.404;23.498;2022-11-15T00:48:37;99995.31;;;4.39;96.77
73594;BME280;64760;53.404;23.498;2022-11-15T00:51:22;99994.13;;;4.33;96.99
73594;BME280;64760;53.404;23.498;2022-11-15T00:54:07;99992.38;;;4.42;96.61
73594;BME280;64760;53.404;23.498;2022-11-15T00:56:51;99992.53;;;4.40;96.62
73594;BME280;64760;53.404;23.498;2022-11-15T00:59:36;99972.72;;;4.35;96.52
73594;BME280;64760;53.404;23.498;2022-11-15T01:02:21;99981.28;;;4.46;97.07
73594;BME280;64760;53.404;23.498;2022-11-15T01:05:07;99977.53;;;4.49;97.12
73594;BME280;64760;53.404;23.498;2022-11-15T01:07:53;99965.22;;;4.48;96.56
73594;BME280;64760;53.404;23.498;2022-11-15T01:10:38;99970.09;;;4.52;96.86
73594;BME280;64760;53.404;23.498;2022-11-15T01:13:22;99958.94;;;4.49;96.84
73594;BME280;64760;53.404;23.498;2022-11-15T01:16:16;99964.16;;;4.58;96.71
73594;BME280;64760;53.404;23.498;2022-11-15T01:19:01;99952.66;;;4.50;96.34
73594;BME280;64760;53.404;23.498;2022-11-15T01:21:49;99935.50;;;4.44;96.69
73594;BME280;64760;53.404;23.498;2022-11-15T01:24:34;99933.53;;;4.46;96.69
73594;BME280;64760;53.404;23.498;2022-11-15T01:27:19;99947.88;;;4.53;96.71
73594;BME280;64760;53.404;23.498;2022-11-15T01:30:04;99944.22;;;4.54;97.03
73594;BME280;64760;53.404;23.498;2022-11-15T01:32:51;99947.56;;;4.56;96.68
73594;BME280;64760;53.404;23.498;2022-11-15T01:35:38;99932.22;;;4.50;96.55
73594;BME280;64760;53.404;23.498;2022-11-15T01:38:25;99942.56;;;4.53;97.13
73594;BME280;64760;53.404;23.498;2022-11-15T01:41:22;99920.03;;;4.40;96.57
73594;BME280;64760;53.404;23.498;2022-11-15T01:47:33;99919.72;;;4.43;97.05
73594;BME280;64760;53.404;23.498;2022-11-15T01:50:25;99923.59;;;4.48;97.21
73594;BME280;64760;53.404;23.498;2022-11-15T01:53:12;99900.63;;;4.39;97.45
73594;BME280;64760;53.404;23.498;2022-11-15T01:55:58;99910.03;;;4.51;97.47
73594;BME280;64760;53.404;23.498;2022-11-15T01:58:44;99894.56;;;4.47;97.35
73594;BME280;64760;53.404;23.498;2022-11-15T02:01:32;99884.56;;;4.41;97.31
73594;BME280;64760;53.404;23.498;2022-11-15T02:04:28;99885.22;;;4.43;97.23
73594;BME280;64760;53.404;23.498;2022-11-15T02:07:20;99893.13;;;4.52;97.47
73594;BME280;64760;53.404;23.498;2022-11-15T02:10:07;99897.97;;;4.57;97.15
73594;BME280;64760;53.404;23.498;2022-11-15T02:12:54;99880.22;;;4.57;97.00
73594;BME280;64760;53.404;23.498;2022-11-15T02:37:43;99856.47;;;4.56;97.01
73594;BME280;64760;53.404;23.498;2022-11-15T02:43:41;99855.03;;;4.61;97.14
73594;BME280;64760;53.404;23.498;2022-11-15T02:50:09;99829.94;;;4.56;97.20
73594;BME280;64760;53.404;23.498;2022-11-15T02:52:55;99827.94;;;4.58;97.13
73594;BME280;64760;53.404;23.498;2022-11-15T02:55:48;99834.78;;;4.60;97.08
73594;BME280;64760;53.404;23.498;2022-11-15T02:59:00;99831.44;;;4.58;97.10
73594;BME280;64760;53.404;23.498;2022-11-15T03:08:06;99812.25;;;4.64;97.37
73594;BME280;64760;53.404;23.498;2022-11-15T03:11:13;99804.06;;;4.58;97.32
73594;BME280;64760;53.404;23.498;2022-11-15T03:20:01;99784.81;;;4.56;97.33
73594;BME280;64760;53.404;23.498;2022-11-15T03:22:49;99783.50;;;4.60;97.30
73594;BME280;64760;53.404;23.498;2022-11-15T03:25:38;99786.00;;;4.61;97.38
73594;BME280;64760;53.404;23.498;2022-11-15T03:28:29;99774.84;;;4.58;97.58
73594;BME280;64760;53.404;23.498;2022-11-15T03:31:19;99755.25;;;4.51;97.01
73594;BME280;64760;53.404;23.498;2022-11-15T03:34:31;99778.19;;;4.60;97.20
73594;BME280;64760;53.404;23.498;2022-11-15T03:37:17;99763.44;;;4.57;97.34
73594;BME280;64760;53.404;23.498;2022-11-15T03:40:05;99755.28;;;4.59;97.09
73594;BME280;64760;53.404;23.498;2022-11-15T03:43:07;99753.16;;;4.62;97.28
73594;BME280;64760;53.404;23.498;2022-11-15T03:46:00;99742.72;;;4.61;97.58
73594;BME280;64760;53.404;23.498;2022-11-15T03:48:53;99743.72;;;4.68;97.05
73594;BME280;64760;53.404;23.498;2022-11-15T03:51:40;99736.22;;;4.63;97.13
73594;BME280;64760;53.404;23.498;2022-11-15T03:54:25;99744.38;;;4.70;96.66
73594;BME280;64760;53.404;23.498;2022-11-15T03:57:10;99733.75;;;4.70;97.12
73594;BME280;64760;53.404;23.498;2022-11-15T03:59:55;99719.47;;;4.63;96.84
73594;BME280;64760;53.404;23.498;2022-11-15T04:02:39;99711.69;;;4.61;96.79
73594;BME280;64760;53.404;23.498;2022-11-15T04:05:24;99727.97;;;4.74;96.68
73594;BME280;64760;53.404;23.498;2022-11-15T04:08:09;99722.66;;;4.74;96.77
73594;BME280;64760;53.404;23.498;2022-11-15T04:10:54;99709.84;;;4.62;96.22
73594;BME280;64760;53.404;23.498;2022-11-15T04:13:39;99722.00;;;4.72;96.39
73594;BME280;64760;53.404;23.498;2022-11-15T04:16:24;99719.19;;;4.74;96.26
73594;BME280;64760;53.404;23.498;2022-11-15T04:19:08;99719.19;;;4.74;96.02
73594;BME280;64760;53.404;23.498;2022-11-15T04:22:12;99716.38;;;4.76;95.83
73594;BME280;64760;53.404;23.498;2022-11-15T04:25:16;99703.56;;;4.71;95.71
73594;BME280;64760;53.404;23.498;2022-11-15T04:28:01;99692.81;;;4.72;95.48
73594;BME280;64760;53.404;23.498;2022-11-15T04:30:46;99679.03;;;4.69;94.94
73594;BME280;64760;53.404;23.498;2022-11-15T04:33:31;99686.56;;;4.82;94.05
73594;BME280;64760;53.404;23.498;2022-11-15T04:36:16;99693.34;;;4.84;93.75
73594;BME280;64760;53.404;23.498;2022-11-15T04:39:19;99678.72;;;4.80;94.44
73594;BME280;64760;53.404;23.498;2022-11-15T04:42:04;99680.03;;;4.76;94.08
73594;BME280;64760;53.404;23.498;2022-11-15T04:44:49;99684.69;;;4.82;93.99
73594;BME280;64760;53.404;23.498;2022-11-15T04:47:34;99669.25;;;4.69;93.38
73594;BME280;64760;53.404;23.498;2022-11-15T04:50:19;99634.16;;;4.50;93.23
73594;BME280;64760;53.404;23.498;2022-11-15T04:53:04;99661.44;;;4.68;93.64
73594;BME280;64760;53.404;23.498;2022-11-15T04:55:49;99675.56;;;4.77;93.78
73594;BME280;64760;53.404;23.498;2022-11-15T04:58:33;99659.09;;;4.65;93.66
73594;BME280;64760;53.404;23.498;2022-11-15T05:01:19;99664.09;;;4.68;93.82
73594;BME280;64760;53.404;23.498;2022-11-15T05:04:04;99677.06;;;4.79;93.96
73594;BME280;64760;53.404;23.498;2022-11-15T05:07:04;99662.13;;;4.78;92.99
73594;BME280;64760;53.404;23.498;2022-11-15T05:09:48;99678.72;;;4.80;93.09
73594;BME280;64760;53.404;23.498;2022-11-15T05:12:33;99683.22;;;4.80;92.13
73594;BME280;64760;53.404;23.498;2022-11-15T05:15:18;99646.97;;;4.62;91.89
73594;BME280;64760;53.404;23.498;2022-11-15T05:18:03;99658.44;;;4.71;92.25
73594;BME280;64760;53.404;23.498;2022-11-15T05:20:47;99664.25;;;4.74;92.54
73594;BME280;64760;53.404;23.498;2022-11-15T05:23:32;99671.25;;;4.76;92.22
73594;BME280;64760;53.404;23.498;2022-11-15T05:26:18;99653.34;;;4.78;91.45
73594;BME280;64760;53.404;23.498;2022-11-15T05:29:03;99657.47;;;4.72;91.17
73594;BME280;64760;53.404;23.498;2022-11-15T05:31:48;99654.31;;;4.68;91.55
73594;BME280;64760;53.404;23.498;2022-11-15T05:34:33;99653.78;;;4.65;92.11
73594;BME280;64760;53.404;23.498;2022-11-15T05:37:17;99654.44;;;4.67;92.97
73594;BME280;64760;53.404;23.498;2022-11-15T05:40:03;99656.78;;;4.70;92.03
73594;BME280;64760;53.404;23.498;2022-11-15T05:42:48;99636.34;;;4.62;92.29
73594;BME280;64760;53.404;23.498;2022-11-15T05:45:34;99650.47;;;4.71;92.30
73594;BME280;64760;53.404;23.498;2022-11-15T05:48:19;99642.38;;;4.72;92.00
73594;BME280;64760;53.404;23.498;2022-11-15T05:51:04;99622.56;;;4.59;91.99
73594;BME280;64760;53.404;23.498;2022-11-15T05:53:51;99643.69;;;4.68;92.47
73594;BME280;64760;53.404;23.498;2022-11-15T05:56:38;99622.75;;;4.57;92.48
73594;BME280;64760;53.404;23.498;2022-11-15T05:59:22;99636.22;;;4.72;92.30
73594;BME280;64760;53.404;23.498;2022-11-15T06:02:08;99639.03;;;4.70;92.36
73594;BME280;64760;53.404;23.498;2022-11-15T06:04:52;99634.88;;;4.68;92.27
73594;BME280;64760;53.404;23.498;2022-11-15T06:07:38;99632.88;;;4.70;92.54
73594;BME280;64760;53.404;23.498;2022-11-15T06:10:23;99623.94;;;4.71;92.36
73594;BME280;64760;53.404;23.498;2022-11-15T06:13:08;99636.72;;;4.76;91.93
73594;BME280;64760;53.404;23.498;2022-11-15T06:15:55;99639.22;;;4.77;92.11
73594;BME280;64760;53.404;23.498;2022-11-15T06:18:41;99642.88;;;4.76;92.59
73594;BME280;64760;53.404;23.498;2022-11-15T06:28:21;99625.25;;;4.67;92.30
73594;BME280;64760;53.404;23.498;2022-11-15T06:31:08;99628.59;;;4.69;92.49
73594;BME280;64760;53.404;23.498;2022-11-15T06:33:57;99590.38;;;4.46;92.57
73594;BME280;64760;53.404;23.498;2022-11-15T06:36:46;99609.66;;;4.64;92.37
73594;BME280;64760;53.404;23.498;2022-11-15T06:39:30;99620.94;;;4.74;92.40
73594;BME280;64760;53.404;23.498;2022-11-15T06:42:15;99595.88;;;4.60;93.05
73594;BME280;64760;53.404;23.498;2022-11-15T06:45:01;99609.66;;;4.72;93.15
73594;BME280;64760;53.404;23.498;2022-11-15T06:47:47;99639.25;;;4.85;92.46
73594;BME280;64760;53.404;23.498;2022-11-15T06:50:32;99626.78;;;4.86;92.10
73594;BME280;64760;53.404;23.498;2022-11-15T06:53:17;99612.69;;;4.77;91.31
73594;BME280;64760;53.404;23.498;2022-11-15T06:56:04;99631.59;;;4.90;91.35
73594;BME280;64760;53.404;23.498;2022-11-15T06:58:50;99621.47;;;4.86;91.16
73594;BME280;64760;53.404;23.498;2022-11-15T07:01:34;99618.50;;;4.81;91.21
73594;BME280;64760;53.404;23.498;2022-11-15T07:04:19;99633.63;;;4.88;91.39
73594;BME280;64760;53.404;23.498;2022-11-15T07:07:04;99608.84;;;4.80;91.81
73594;BME280;64760;53.404;23.498;2022-11-15T07:09:50;99622.63;;;4.83;91.31
73594;BME280;64760;53.404;23.498;2022-11-15T07:12:34;99617.16;;;4.77;91.87
73594;BME280;64760;53.404;23.498;2022-11-15T07:15:21;99636.63;;;4.93;91.57
73594;BME280;64760;53.404;23.498;2022-11-15T07:18:06;99621.81;;;4.91;91.94
73594;BME280;64760;53.404;23.498;2022-11-15T07:20:51;99630.66;;;5.15;90.84
73594;BME280;64760;53.404;23.498;2022-11-15T07:23:39;99623.38;;;5.17;90.02
73594;BME280;64760;53.404;23.498;2022-11-15T07:26:24;99596.59;;;5.03;90.18
73594;BME280;64760;53.404;23.498;2022-11-15T07:29:09;99609.75;;;5.29;89.52
73594;BME280;64760;53.404;23.498;2022-11-15T07:31:54;99612.06;;;5.07;90.34
73594;BME280;64760;53.404;23.498;2022-11-15T07:34:39;99596.25;;;4.82;91.01
73594;BME280;64760;53.404;23.498;2022-11-15T07:37:24;99613.03;;;4.90;91.43
73594;BME280;64760;53.404;23.498;2022-11-15T07:40:09;99610.38;;;4.90;92.09
73594;BME280;64760;53.404;23.498;2022-11-15T07:43:01;99612.38;;;4.88;91.90
73594;BME280;64760;53.404;23.498;2022-11-15T07:45:46;99607.38;;;4.85;91.49
73594;BME280;64760;53.404;23.498;2022-11-15T07:48:31;99598.72;;;4.75;91.12
73594;BME280;64760;53.404;23.498;2022-11-15T07:51:16;99599.22;;;4.79;92.13
73594;BME280;64760;53.404;23.498;2022-11-15T07:54:01;99588.78;;;4.77;92.13
73594;BME280;64760;53.404;23.498;2022-11-15T07:56:46;99603.72;;;4.86;91.51
73594;BME280;64760;53.404;23.498;2022-11-15T07:59:31;99605.53;;;4.86;91.61
73594;BME280;64760;53.404;23.498;2022-11-15T08:02:15;99591.75;;;4.74;92.11
73594;BME280;64760;53.404;23.498;2022-11-15T08:05:03;99607.38;;;4.85;91.58
73594;BME280;64760;53.404;23.498;2022-11-15T08:07:48;99596.59;;;4.87;91.96
73594;BME280;64760;53.404;23.498;2022-11-15T08:10:33;99573.00;;;4.76;91.96
73594;BME280;64760;53.404;23.498;2022-11-15T08:13:18;99580.16;;;4.91;91.09
73594;BME280;64760;53.404;23.498;2022-11-15T08:16:04;99572.22;;;4.99;90.27
73594;BME280;64760;53.404;23.498;2022-11-15T08:18:49;99580.53;;;5.20;89.39
73594;BME280;64760;53.404;23.498;2022-11-15T08:21:34;99579.00;;;5.18;89.21
73594;BME280;64760;53.404;23.498;2022-11-15T08:24:19;99586.69;;;5.29;88.92
73594;BME280;64760;53.404;23.498;2022-11-15T08:27:05;99577.88;;;5.29;88.38
73594;BME280;64760;53.404;23.498;2022-11-15T08:29:59;99581.50;;;5.03;88.68
73594;BME280;64760;53.404;23.498;2022-11-15T08:32:44;99580.00;;;4.85;90.10
73594;BME280;64760;53.404;23.498;2022-11-15T08:35:29;99584.00;;;4.97;89.95
73594;BME280;64760;53.404;23.498;2022-11-15T08:38:20;99584.81;;;4.89;89.58
73594;BME280;64760;53.404;23.498;2022-11-15T08:41:04;99587.63;;;4.80;91.01
73594;BME280;64760;53.404;23.498;2022-11-15T08:43:52;99577.13;;;4.70;90.96
73594;BME280;64760;53.404;23.498;2022-11-15T08:46:36;99578.50;;;4.90;90.98
73594;BME280;64760;53.404;23.498;2022-11-15T08:49:22;99577.16;;;4.94;90.73
73594;BME280;64760;53.404;23.498;2022-11-15T08:52:07;99578.19;;;4.93;90.46
73594;BME280;64760;53.404;23.498;2022-11-15T08:54:52;99568.53;;;4.84;90.49
73594;BME280;64760;53.404;23.498;2022-11-15T08:57:37;99574.19;;;4.89;90.92
73594;BME280;64760;53.404;23.498;2022-11-15T09:00:22;99573.38;;;4.97;91.06
73594;BME280;64760;53.404;23.498;2022-11-15T09:03:07;99558.94;;;5.07;90.49
73594;BME280;64760;53.404;23.498;2022-11-15T09:05:58;99575.22;;;5.29;89.75
73594;BME280;64760;53.404;23.498;2022-11-15T09:08:43;99567.41;;;5.35;88.27
73594;BME280;64760;53.404;23.498;2022-11-15T09:11:31;99557.09;;;5.32;88.15
73594;BME280;64760;53.404;23.498;2022-11-15T09:14:16;99552.28;;;5.19;88.14
73594;BME280;64760;53.404;23.498;2022-11-15T09:17:02;99547.31;;;5.00;89.04
73594;BME280;64760;53.404;23.498;2022-11-15T09:19:47;99550.94;;;4.83;90.01
73594;BME280;64760;53.404;23.498;2022-11-15T09:22:33;99545.63;;;4.75;91.03
73594;BME280;64760;53.404;23.498;2022-11-15T09:25:20;99565.88;;;4.76;91.41
73594;BME280;64760;53.404;23.498;2022-11-15T09:28:06;99556.91;;;4.69;92.40
73594;BME280;64760;53.404;23.498;2022-11-15T09:30:58;99562.88;;;4.71;92.09
73594;BME280;64760;53.404;23.498;2022-11-15T09:33:44;99552.28;;;5.03;91.25
73594;BME280;64760;53.404;23.498;2022-11-15T09:36:29;99530.03;;;4.88;91.21
73594;BME280;64760;53.404;23.498;2022-11-15T09:39:15;99531.38;;;4.92;90.58
73594;BME280;64760;53.404;23.498;2022-11-15T09:51:40;99524.72;;;4.80;91.55
73594;BME280;64760;53.404;23.498;2022-11-15T09:56:46;99519.06;;;4.83;91.98
73594;BME280;64760;53.404;23.498;2022-11-15T10:05:22;99501.66;;;4.89;90.39
73594;BME280;64760;53.404;23.498;2022-11-15T10:08:06;99497.19;;;4.73;90.67
73594;BME280;64760;53.404;23.498;2022-11-15T10:10:43;99503.97;;;4.84;91.43
73594;BME280;64760;53.404;23.498;2022-11-15T10:13:26;99502.16;;;4.76;91.86
73594;BME280;64760;53.404;23.498;2022-11-15T10:16:09;99490.69;;;4.67;91.84
73594;BME280;64760;53.404;23.498;2022-11-15T10:24:43;99479.59;;;4.64;92.70
73594;BME280;64760;53.404;23.498;2022-11-15T10:27:15;99490.84;;;4.74;92.11
73594;BME280;64760;53.404;23.498;2022-11-15T10:29:44;99495.03;;;4.68;92.90
73594;BME280;64760;53.404;23.498;2022-11-15T10:32:12;99481.75;;;4.60;92.88
73594;BME280;64760;53.404;23.498;2022-11-15T10:34:40;99491.03;;;4.72;92.95
73594;BME280;64760;53.404;23.498;2022-11-15T10:37:06;99494.53;;;4.65;93.22
73594;BME280;64760;53.404;23.498;2022-11-15T10:39:34;99438.75;;;4.33;92.99
73594;BME280;64760;53.404;23.498;2022-11-15T10:42:28;99489.22;;;4.81;92.92
73594;BME280;64760;53.404;23.498;2022-11-15T10:44:55;99469.31;;;4.69;92.68
73594;BME280;64760;53.404;23.498;2022-11-15T10:47:24;99463.16;;;4.77;92.78
73594;BME280;64760;53.404;23.498;2022-11-15T10:52:26;99475.09;;;4.89;91.85
73594;BME280;64760;53.404;23.498;2022-11-15T10:58:03;99490.06;;;4.82;92.16
73594;BME280;64760;53.404;23.498;2022-11-15T11:00:34;99469.94;;;4.63;92.74
73594;BME280;64760;53.404;23.498;2022-11-15T11:03:29;99483.41;;;4.53;93.45
73594;BME280;64760;53.404;23.498;2022-11-15T11:06:17;99484.41;;;4.68;93.44
73594;BME280;64760;53.404;23.498;2022-11-15T11:08:57;99483.22;;;4.79;92.87
73594;BME280;64760;53.404;23.498;2022-11-15T11:11:44;99474.94;;;4.82;92.42
73594;BME280;64760;53.404;23.498;2022-11-15T11:14:12;99478.59;;;4.65;92.96
73594;BME280;64760;53.404;23.498;2022-11-15T11:16:46;99458.34;;;4.48;93.31
73594;BME280;64760;53.404;23.498;2022-11-15T11:19:31;99481.91;;;4.67;93.76
73594;BME280;64760;53.404;23.498;2022-11-15T11:22:25;99451.84;;;4.50;93.48
73594;BME280;64760;53.404;23.498;2022-11-15T11:28:04;99471.78;;;4.62;93.99
73594;BME280;64760;53.404;23.498;2022-11-15T11:30:43;99462.97;;;4.54;94.14
73594;BME280;64760;53.404;23.498;2022-11-15T11:33:25;99462.97;;;4.62;94.31
73594;BME280;64760;53.404;23.498;2022-11-15T11:38:56;99438.41;;;4.36;94.57
73594;BME280;64760;53.404;23.498;2022-11-15T11:41:37;99455.84;;;4.46;94.61
73594;BME280;64760;53.404;23.498;2022-11-15T11:45:03;99452.38;;;4.46;94.83
73594;BME280;64760;53.404;23.498;2022-11-15T11:47:41;99434.78;;;4.53;94.81
73594;BME280;64760;53.404;23.498;2022-11-15T11:50:23;99422.81;;;4.24;94.60
73594;BME280;64760;53.404;23.498;2022-11-15T11:53:01;99443.88;;;4.50;95.27
73594;BME280;64760;53.404;23.498;2022-11-15T11:55:37;99441.91;;;4.52;94.60
73594;BME280;64760;53.404;23.498;2022-11-15T11:58:33;99429.97;;;4.40;94.77
73594;BME280;64760;53.404;23.498;2022-11-15T12:01:26;99424.81;;;4.47;94.69
73594;BME280;64760;53.404;23.498;2022-11-15T12:04:19;99425.31;;;4.50;94.30
73594;BME280;64760;53.404;23.498;2022-11-15T12:06:51;99422.34;;;4.45;94.73
73594;BME280;64760;53.404;23.498;2022-11-15T12:09:32;99416.38;;;4.43;94.92
73594;BME280;64760;53.404;23.498;2022-11-15T12:12:08;99408.88;;;4.39;94.60
73594;BME280;64760;53.404;23.498;2022-11-15T12:14:43;99408.72;;;4.32;95.20
73594;BME280;64760;53.404;23.498;2022-11-15T12:17:12;99398.75;;;4.26;95.58
73594;BME280;64760;53.404;23.498;2022-11-15T12:19:39;99398.13;;;4.24;95.93
73594;BME280;64760;53.404;23.498;2022-11-15T12:22:20;99395.97;;;4.28;96.18
73594;BME280;64760;53.404;23.498;2022-11-15T12:24:57;99379.69;;;4.14;96.13
73594;BME280;64760;53.404;23.498;2022-11-15T12:30:17;99390.16;;;4.32;96.22
73594;BME280;64760;53.404;23.498;2022-11-15T12:32:59;99392.31;;;4.37;96.32
73594;BME280;64760;53.404;23.498;2022-11-15T12:37:58;99387.34;;;4.42;95.88
73594;BME280;64760;53.404;23.498;2022-11-15T12:40:32;99386.69;;;4.40;95.74
73594;BME280;64760;53.404;23.498;2022-11-15T12:43:37;99383.19;;;4.31;95.83
73594;BME280;64760;53.404;23.498;2022-11-15T12:46:05;99366.75;;;4.11;96.54
73594;BME280;64760;53.404;23.498;2022-11-15T12:51:03;99370.91;;;4.06;97.14
73594;BME280;64760;53.404;23.498;2022-11-15T12:53:32;99393.16;;;4.29;96.34
73594;BME280;64760;53.404;23.498;2022-11-15T12:58:58;99385.34;;;4.28;96.42
73594;BME280;64760;53.404;23.498;2022-11-15T13:06:48;99371.75;;;4.22;94.62
73594;BME280;64760;53.404;23.498;2022-11-15T13:14:40;99388.97;;;4.18;95.59
73594;BME280;64760;53.404;23.498;2022-11-15T13:17:33;99387.97;;;4.11;95.28
73594;BME280;64760;53.404;23.498;2022-11-15T13:22:48;99392.94;;;4.06;96.05
73594;BME280;64760;53.404;23.498;2022-11-15T13:30:55;99390.63;;;4.11;95.33
73594;BME280;64760;53.404;23.498;2022-11-15T13:33:25;99384.97;;;4.06;95.51
73594;BME280;64760;53.404;23.498;2022-11-15T13:35:57;99400.91;;;4.14;95.47
73594;BME280;64760;53.404;23.498;2022-11-15T13:40:50;99381.69;;;4.12;94.48
73594;BME280;64760;53.404;23.498;2022-11-15T13:43:27;99390.84;;;4.18;95.08
73594;BME280;64760;53.404;23.498;2022-11-15T13:46:17;99378.88;;;4.06;95.54
73594;BME280;64760;53.404;23.498;2022-11-15T13:48:45;99387.81;;;3.97;95.07
73594;BME280;64760;53.404;23.498;2022-11-15T13:54:06;99362.28;;;3.96;95.29
73594;BME280;64760;53.404;23.498;2022-11-15T13:56:35;99365.59;;;3.90;95.65
73594;BME280;64760;53.404;23.498;2022-11-15T13:59:10;99379.34;;;3.93;95.77
73594;BME280;64760;53.404;23.498;2022-11-15T14:01:37;99376.88;;;4.00;95.59
73594;BME280;64760;53.404;23.498;2022-11-15T14:04:11;99375.69;;;4.02;94.00
73594;BME280;64760;53.404;23.498;2022-11-15T14:06:45;99362.94;;;3.90;93.96
73594;BME280;64760;53.404;23.498;2022-11-15T14:11:53;99358.44;;;3.90;94.68
73594;BME280;64760;53.404;23.498;2022-11-15T14:14:28;99364.78;;;4.05;94.63
73594;BME280;64760;53.404;23.498;2022-11-15T14:16:59;99352.19;;;4.07;94.40
73594;BME280;64760;53.404;23.498;2022-11-15T14:24:46;99353.50;;;4.11;94.96
73594;BME280;64760;53.404;23.498;2022-11-15T14:27:28;99357.84;;;4.29;93.92
73594;BME280;64760;53.404;23.498;2022-11-15T14:29:55;99340.25;;;4.19;94.31
73594;BME280;64760;53.404;23.498;2022-11-15T14:32:24;99332.13;;;4.13;94.40
73594;BME280;64760;53.404;23.498;2022-11-15T14:34:58;99351.34;;;4.23;94.43
73594;BME280;64760;53.404;23.498;2022-11-15T14:37:31;99343.72;;;4.28;94.08
73594;BME280;64760;53.404;23.498;2022-11-15T14:40:00;99346.38;;;4.28;94.84
73594;BME280;64760;53.404;23.498;2022-11-15T14:42:27;99336.44;;;4.30;94.49
73594;BME280;64760;53.404;23.498;2022-11-15T14:44:53;99330.63;;;4.18;94.82
73594;BME280;64760;53.404;23.498;2022-11-15T14:47:21;99337.94;;;4.24;94.74
73594;BME280;64760;53.404;23.498;2022-11-15T14:49:47;99326.34;;;4.34;94.33
73594;BME280;64760;53.404;23.498;2022-11-15T14:52:30;99341.09;;;4.36;94.89
73594;BME280;64760;53.404;23.498;2022-11-15T14:55:00;99345.22;;;4.39;94.83
73594;BME280;64760;53.404;23.498;2022-11-15T14:57:29;99338.91;;;4.23;95.26
73594;BME280;64760;53.404;23.498;2022-11-15T14:59:55;99340.59;;;4.24;95.04
73594;BME280;64760;53.404;23.498;2022-11-15T15:02:26;99341.22;;;4.26;94.95
73594;BME280;64760;53.404;23.498;2022-11-15T15:04:53;99327.81;;;4.28;94.85
73594;BME280;64760;53.404;23.498;2022-11-15T15:07:20;99323.84;;;4.32;94.39
73594;BME280;64760;53.404;23.498;2022-11-15T15:09:46;99327.97;;;4.35;94.21
73594;BME280;64760;53.404;23.498;2022-11-15T15:12:21;99318.53;;;4.24;94.64
73594;BME280;64760;53.404;23.498;2022-11-15T15:14:49;99321.03;;;4.09;95.11
73594;BME280;64760;53.404;23.498;2022-11-15T15:17:17;99337.59;;;4.28;94.87
73594;BME280;64760;53.404;23.498;2022-11-15T15:19:43;99332.78;;;4.23;95.11
73594;BME280;64760;53.404;23.498;2022-11-15T15:22:15;99326.84;;;4.21;95.18
73594;BME280;64760;53.404;23.498;2022-11-15T15:24:43;99323.00;;;4.07;95.57
73594;BME280;64760;53.404;23.498;2022-11-15T15:27:10;99323.69;;;4.09;95.98
73594;BME280;64760;53.404;23.498;2022-11-15T15:29:37;99308.06;;;4.22;95.83
73594;BME280;64760;53.404;23.498;2022-11-15T15:32:04;99315.72;;;4.25;95.28
73594;BME280;64760;53.404;23.498;2022-11-15T15:34:31;99291.84;;;4.09;95.21
73594;BME280;64760;53.404;23.498;2022-11-15T15:37:08;99306.25;;;4.15;95.49
73594;BME280;64760;53.404;23.498;2022-11-15T15:39:34;99306.59;;;4.12;95.62
73594;BME280;64760;53.404;23.498;2022-11-15T15:42:01;99306.09;;;4.08;96.30
73594;BME280;64760;53.404;23.498;2022-11-15T15:44:29;99283.72;;;4.03;96.24
73594;BME280;64760;53.404;23.498;2022-11-15T15:46:56;99296.47;;;4.32;95.45
73594;BME280;64760;53.404;23.498;2022-11-15T15:49:25;99279.94;;;4.05;95.74
73594;BME280;64760;53.404;23.498;2022-11-15T15:51:57;99279.09;;;4.21;95.52
73594;BME280;64760;53.404;23.498;2022-11-15T15:54:24;99301.28;;;4.28;95.09
73594;BME280;64760;53.404;23.498;2022-11-15T15:56:56;99300.31;;;4.21;95.57
73594;BME280;64760;53.404;23.498;2022-11-15T15:59:24;99300.94;;;4.23;95.95
73594;BME280;64760;53.404;23.498;2022-11-15T16:01:50;99295.00;;;4.21;95.70
73594;BME280;64760;53.404;23.498;2022-11-15T16:04:17;99234.03;;;3.81;96.55
73594;BME280;64760;53.404;23.498;2022-11-15T16:06:44;99279.75;;;4.07;96.51
73594;BME280;64760;53.404;23.498;2022-11-15T16:09:14;99269.97;;;4.07;96.77
73594;BME280;64760;53.404;23.498;2022-11-15T16:11:44;99275.13;;;4.09;96.80
73594;BME280;64760;53.404;23.498;2022-11-15T16:14:10;99279.59;;;4.08;96.86
73594;BME280;64760;53.404;23.498;2022-11-15T16:16:37;99293.81;;;4.32;96.51
73594;BME280;64760;53.404;23.498;2022-11-15T16:19:04;99264.28;;;4.35;95.25
73594;BME280;64760;53.404;23.498;2022-11-15T16:21:31;99284.88;;;4.41;95.40
73594;BME280;64760;53.404;23.498;2022-11-15T16:23:57;99284.88;;;4.41;95.19
73594;BME280;64760;53.404;23.498;2022-11-15T16:26:26;99277.25;;;4.30;95.08